^^
Saratoga-Weather Station Historical Data
Daily Summary for May 11, 2021 Units:  Both    English   Metric
Daily Weekly Monthly Yearly Custom
  High: Low: Average:
Temperature: 59 °F /  15 °C 50.4 °F /  10.2 °C 53.4 °F /  11.9 °C
Dew Point: 53.6 °F /  12 °C 48.7 °F /  9.3 °C 50.7 °F /  10.4 °C
Humidity: 96% 80% 91%
Wind Speed: 4.9mph /  7.9km/h - 0.6mph /  0.9km/h
Wind Gust: 8mph /  12.9km/h - -
Wind- - WSW
Pressure: 29.8 in /  1008.8 hPa 29.7 in /  1006.4 hPa -
Precipitation: 0 in /  0.0 mm    
Historical Graphs
 
 
Tabular Data for May 11, 2021
Time Temperature Dew Point Pressure Wind Wind Speed Wind Gust Humidity Rainfall Rate (Hourly) solar
00:03 54.3 °F /  12.4 °C 51.4 °F /  10.8 °C 29.8in /  1008.8hPa NNW 0.9mph /  1.4km/h 1mph /  1.6km/h 90% 0in /  0.0mm 0 W/m2
00:08 54.3 °F /  12.4 °C 51.4 °F /  10.8 °C 29.8in /  1008.8hPa Calm     90% 0in /  0.0mm 0 W/m2
00:13 54.3 °F /  12.4 °C 51.4 °F /  10.8 °C 29.8in /  1008.8hPa Calm     90% 0in /  0.0mm 0 W/m2
00:18 54.3 °F /  12.4 °C 51.4 °F /  10.8 °C 29.8in /  1008.8hPa Calm     90% 0in /  0.0mm 0 W/m2
00:23 54.3 °F /  12.4 °C 51.4 °F /  10.8 °C 29.8in /  1008.5hPa Calm   2mph /  3.2km/h 90% 0in /  0.0mm 0 W/m2
00:28 54.1 °F /  12.3 °C 51.3 °F /  10.7 °C 29.8in /  1008.5hPa Calm     90% 0in /  0.0mm 0 W/m2
00:33 54.1 °F /  12.3 °C 51.3 °F /  10.7 °C 29.8in /  1008.5hPa Calm   2mph /  3.2km/h 90% 0in /  0.0mm 0 W/m2
00:38 54.1 °F /  12.3 °C 51.3 °F /  10.7 °C 29.8in /  1008.5hPa Calm     90% 0in /  0.0mm 0 W/m2
00:43 54.1 °F /  12.3 °C 51.3 °F /  10.7 °C 29.8in /  1008.5hPa Calm     90% 0in /  0.0mm 0 W/m2
00:48 54 °F /  12.2 °C 51.4 °F /  10.8 °C 29.8in /  1008.5hPa Calm     91% 0in /  0.0mm 0 W/m2
00:53 54 °F /  12.2 °C 51.4 °F /  10.8 °C 29.8in /  1008.5hPa Calm   1mph /  1.6km/h 91% 0in /  0.0mm 0 W/m2
00:58 54 °F /  12.2 °C 51.4 °F /  10.8 °C 29.8in /  1008.5hPa Calm     91% 0in /  0.0mm 0 W/m2
01:03 53.8 °F /  12.1 °C 51.3 °F /  10.7 °C 29.8in /  1008.5hPa Calm   1mph /  1.6km/h 91% 0in /  0.0mm 0 W/m2
01:09 53.8 °F /  12.1 °C 51.3 °F /  10.7 °C 29.8in /  1008.5hPa Calm     91% 0in /  0.0mm 0 W/m2
01:14 53.4 °F /  11.9 °C 50.9 °F /  10.5 °C 29.8in /  1008.5hPa Calm     91% 0in /  0.0mm 0 W/m2
01:19 53.2 °F /  11.8 °C 50.7 °F /  10.4 °C 29.8in /  1008.5hPa Calm     91% 0in /  0.0mm 0 W/m2
01:24 53.2 °F /  11.8 °C 50.7 °F /  10.4 °C 29.8in /  1008.5hPa Calm     91% 0in /  0.0mm 0 W/m2
01:29 53.1 °F /  11.7 °C 50.7 °F /  10.4 °C 29.8in /  1008.5hPa Calm     92% 0in /  0.0mm 0 W/m2
01:34 52.9 °F /  11.6 °C 50.5 °F /  10.3 °C 29.8in /  1008.5hPa ESE 0.9mph /  1.4km/h 2mph /  3.2km/h 92% 0in /  0.0mm 0 W/m2
01:39 52.9 °F /  11.6 °C 50.5 °F /  10.3 °C 29.8in /  1008.5hPa ESE 0.9mph /  1.4km/h 3mph /  4.8km/h 92% 0in /  0.0mm 0 W/m2
01:44 52.9 °F /  11.6 °C 50.5 °F /  10.3 °C 29.8in /  1008.5hPa ESE 2mph /  3.2km/h 2mph /  3.2km/h 92% 0in /  0.0mm 0 W/m2
01:49 52.9 °F /  11.6 °C 50.5 °F /  10.3 °C 29.8in /  1008.5hPa Calm   2mph /  3.2km/h 92% 0in /  0.0mm 0 W/m2
01:54 52.9 °F /  11.6 °C 50.9 °F /  10.5 °C 29.8in /  1008.5hPa Calm     93% 0in /  0.0mm 0 W/m2
01:59 52.9 °F /  11.6 °C 50.5 °F /  10.3 °C 29.8in /  1008.5hPa Calm   2mph /  3.2km/h 92% 0in /  0.0mm 0 W/m2
02:04 52.7 °F /  11.5 °C 50.4 °F /  10.2 °C 29.8in /  1008.5hPa Calm     92% 0in /  0.0mm 0 W/m2
02:09 52.5 °F /  11.4 °C 50.2 °F /  10.1 °C 29.8in /  1008.1hPa Calm     92% 0in /  0.0mm 0 W/m2
02:14 52.3 °F /  11.3 °C 50 °F /  10 °C 29.8in /  1008.5hPa Calm     92% 0in /  0.0mm 0 W/m2
02:19 52.2 °F /  11.2 °C 49.8 °F /  9.9 °C 29.8in /  1008.5hPa Calm     92% 0in /  0.0mm 0 W/m2
02:24 52 °F /  11.1 °C 49.6 °F /  9.8 °C 29.8in /  1008.5hPa Calm     92% 0in /  0.0mm 0 W/m2
02:29 51.8 °F /  11 °C 49.8 °F /  9.9 °C 29.8in /  1008.1hPa Calm     93% 0in /  0.0mm 0 W/m2
02:34 51.6 °F /  10.9 °C 49.6 °F /  9.8 °C 29.8in /  1008.1hPa Calm     93% 0in /  0.0mm 0 W/m2
02:39 51.6 °F /  10.9 °C 49.6 °F /  9.8 °C 29.8in /  1008.1hPa Calm     93% 0in /  0.0mm 0 W/m2
02:44 51.4 °F /  10.8 °C 49.5 °F /  9.7 °C 29.8in /  1008.1hPa Calm     93% 0in /  0.0mm 0 W/m2
02:49 51.3 °F /  10.7 °C 49.3 °F /  9.6 °C 29.8in /  1008.1hPa Calm     93% 0in /  0.0mm 0 W/m2
02:54 51.3 °F /  10.7 °C 49.3 °F /  9.6 °C 29.8in /  1008.1hPa Calm     93% 0in /  0.0mm 0 W/m2
02:59 51.1 °F /  10.6 °C 49.1 °F /  9.5 °C 29.8in /  1008.1hPa Calm     93% 0in /  0.0mm 0 W/m2
03:04 51.1 °F /  10.6 °C 49.1 °F /  9.5 °C 29.8in /  1008.1hPa Calm     93% 0in /  0.0mm 0 W/m2
03:09 50.9 °F /  10.5 °C 48.9 °F /  9.4 °C 29.8in /  1008.1hPa Calm     93% 0in /  0.0mm 0 W/m2
03:14 50.9 °F /  10.5 °C 49.3 °F /  9.6 °C 29.8in /  1008.1hPa Calm     94% 0in /  0.0mm 0 W/m2
03:19 50.9 °F /  10.5 °C 49.3 °F /  9.6 °C 29.8in /  1008.1hPa Calm     94% 0in /  0.0mm 0 W/m2
03:24 50.7 °F /  10.4 °C 49.1 °F /  9.5 °C 29.8in /  1008.1hPa Calm     94% 0in /  0.0mm 0 W/m2
03:29 50.7 °F /  10.4 °C 49.1 °F /  9.5 °C 29.8in /  1008.1hPa Calm     94% 0in /  0.0mm 0 W/m2
03:34 50.7 °F /  10.4 °C 49.1 °F /  9.5 °C 29.8in /  1008.1hPa Calm     94% 0in /  0.0mm 0 W/m2
03:39 50.7 °F /  10.4 °C 49.1 °F /  9.5 °C 29.8in /  1008.1hPa Calm     94% 0in /  0.0mm 0 W/m2
03:44 50.7 °F /  10.4 °C 49.1 °F /  9.5 °C 29.8in /  1007.8hPa Calm     94% 0in /  0.0mm 0 W/m2
03:49 50.7 °F /  10.4 °C 49.1 °F /  9.5 °C 29.8in /  1007.8hPa Calm     94% 0in /  0.0mm 0 W/m2
03:54 50.7 °F /  10.4 °C 49.1 °F /  9.5 °C 29.8in /  1008.1hPa Calm     94% 0in /  0.0mm 0 W/m2
03:59 50.7 °F /  10.4 °C 49.1 °F /  9.5 °C 29.8in /  1008.1hPa Calm     94% 0in /  0.0mm 0 W/m2
04:04 50.5 °F /  10.3 °C 48.9 °F /  9.4 °C 29.8in /  1008.1hPa Calm     94% 0in /  0.0mm 0 W/m2
04:09 50.5 °F /  10.3 °C 48.9 °F /  9.4 °C 29.8in /  1008.1hPa Calm     94% 0in /  0.0mm 0 W/m2
04:14 50.5 °F /  10.3 °C 48.9 °F /  9.4 °C 29.8in /  1007.8hPa Calm     94% 0in /  0.0mm 0 W/m2
04:19 50.4 °F /  10.2 °C 48.7 °F /  9.3 °C 29.8in /  1007.8hPa Calm     94% 0in /  0.0mm 0 W/m2
04:24 50.4 °F /  10.2 °C 48.7 °F /  9.3 °C 29.8in /  1007.8hPa Calm     94% 0in /  0.0mm 0 W/m2
04:29 50.4 °F /  10.2 °C 48.7 °F /  9.3 °C 29.8in /  1008.1hPa Calm     94% 0in /  0.0mm 0 W/m2
04:34 50.4 °F /  10.2 °C 48.7 °F /  9.3 °C 29.8in /  1008.1hPa Calm     94% 0in /  0.0mm 0 W/m2
04:39 50.4 °F /  10.2 °C 48.9 °F /  9.4 °C 29.8in /  1008.1hPa Calm     95% 0in /  0.0mm 0 W/m2
04:44 50.4 °F /  10.2 °C 48.9 °F /  9.4 °C 29.8in /  1008.1hPa Calm     95% 0in /  0.0mm 0 W/m2
04:49 50.4 °F /  10.2 °C 48.9 °F /  9.4 °C 29.8in /  1008.1hPa Calm     95% 0in /  0.0mm 0 W/m2
04:54 50.4 °F /  10.2 °C 48.9 °F /  9.4 °C 29.8in /  1008.1hPa Calm     95% 0in /  0.0mm 0 W/m2
04:59 50.4 °F /  10.2 °C 48.9 °F /  9.4 °C 29.8in /  1008.1hPa Calm     95% 0in /  0.0mm 0 W/m2
05:04 50.4 °F /  10.2 °C 48.9 °F /  9.4 °C 29.8in /  1007.8hPa Calm     95% 0in /  0.0mm 0 W/m2
05:09 50.4 °F /  10.2 °C 48.9 °F /  9.4 °C 29.8in /  1007.8hPa Calm     95% 0in /  0.0mm 0 W/m2
05:14 50.4 °F /  10.2 °C 48.9 °F /  9.4 °C 29.8in /  1007.8hPa Calm     95% 0in /  0.0mm 0 W/m2
05:19 50.4 °F /  10.2 °C 48.9 °F /  9.4 °C 29.8in /  1007.8hPa Calm     95% 0in /  0.0mm 0 W/m2
05:24 50.4 °F /  10.2 °C 48.9 °F /  9.4 °C 29.8in /  1007.8hPa Calm     95% 0in /  0.0mm 0 W/m2
05:29 50.5 °F /  10.3 °C 49.1 °F /  9.5 °C 29.8in /  1007.8hPa Calm     95% 0in /  0.0mm 0 W/m2
05:34 50.5 °F /  10.3 °C 49.1 °F /  9.5 °C 29.8in /  1008.1hPa Calm     95% 0in /  0.0mm 0 W/m2
05:39 50.5 °F /  10.3 °C 49.1 °F /  9.5 °C 29.8in /  1007.8hPa Calm     95% 0in /  0.0mm 0 W/m2
05:44 50.5 °F /  10.3 °C 49.1 °F /  9.5 °C 29.8in /  1007.8hPa Calm     95% 0in /  0.0mm 0 W/m2
05:49 50.5 °F /  10.3 °C 49.1 °F /  9.5 °C 29.8in /  1007.5hPa Calm     95% 0in /  0.0mm 0 W/m2
05:54 50.5 °F /  10.3 °C 49.1 °F /  9.5 °C 29.8in /  1007.5hPa South 2mph /  3.2km/h 2mph /  3.2km/h 95% 0in /  0.0mm 0 W/m2
05:59 50.5 °F /  10.3 °C 49.1 °F /  9.5 °C 29.8in /  1007.5hPa Calm   1mph /  1.6km/h 95% 0in /  0.0mm 0 W/m2
06:04 50.5 °F /  10.3 °C 49.1 °F /  9.5 °C 29.8in /  1007.5hPa Calm     95% 0in /  0.0mm 7 W/m2
06:09 50.5 °F /  10.3 °C 49.1 °F /  9.5 °C 29.8in /  1007.5hPa Calm   1mph /  1.6km/h 95% 0in /  0.0mm 12 W/m2
06:14 50.5 °F /  10.3 °C 49.1 °F /  9.5 °C 29.8in /  1007.5hPa Calm     95% 0in /  0.0mm 23 W/m2
06:19 50.5 °F /  10.3 °C 49.1 °F /  9.5 °C 29.7in /  1007.1hPa Calm     95% 0in /  0.0mm 39 W/m2
06:24 50.5 °F /  10.3 °C 49.1 °F /  9.5 °C 29.7in /  1007.1hPa Calm     95% 0in /  0.0mm 46 W/m2
06:29 50.5 °F /  10.3 °C 49.1 °F /  9.5 °C 29.7in /  1007.1hPa Calm     95% 0in /  0.0mm 65 W/m2
06:35 50.5 °F /  10.3 °C 49.1 °F /  9.5 °C 29.7in /  1007.1hPa Calm     95% 0in /  0.0mm 81 W/m2
06:40 50.7 °F /  10.4 °C 49.6 °F /  9.8 °C 29.7in /  1007.1hPa Calm     96% 0in /  0.0mm 70 W/m2
06:45 51.1 °F /  10.6 °C 50 °F /  10 °C 29.7in /  1007.1hPa Calm     96% 0in /  0.0mm 54 W/m2
06:50 51.1 °F /  10.6 °C 50 °F /  10 °C 29.7in /  1007.1hPa Calm     96% 0in /  0.0mm 51 W/m2
06:55 51.3 °F /  10.7 °C 50.2 °F /  10.1 °C 29.7in /  1007.1hPa Calm   1mph /  1.6km/h 96% 0in /  0.0mm 46 W/m2
07:00 51.4 °F /  10.8 °C 50.4 °F /  10.2 °C 29.7in /  1007.1hPa South 0.9mph /  1.4km/h 2mph /  3.2km/h 96% 0in /  0.0mm 42 W/m2
07:05 51.4 °F /  10.8 °C 50.4 °F /  10.2 °C 29.7in /  1007.1hPa Calm     96% 0in /  0.0mm 62 W/m2
07:10 51.4 °F /  10.8 °C 50.4 °F /  10.2 °C 29.7in /  1007.1hPa Calm   2mph /  3.2km/h 96% 0in /  0.0mm 49 W/m2
07:15 51.6 °F /  10.9 °C 50.5 °F /  10.3 °C 29.7in /  1007.1hPa Calm     96% 0in /  0.0mm 49 W/m2
07:20 51.6 °F /  10.9 °C 50.5 °F /  10.3 °C 29.7in /  1007.1hPa Calm     96% 0in /  0.0mm 46 W/m2
07:25 51.6 °F /  10.9 °C 50.5 °F /  10.3 °C 29.7in /  1007.1hPa Calm     96% 0in /  0.0mm 58 W/m2
07:30 51.8 °F /  11 °C 50.7 °F /  10.4 °C 29.7in /  1007.1hPa Calm     96% 0in /  0.0mm 77 W/m2
07:35 52 °F /  11.1 °C 50.5 °F /  10.3 °C 29.7in /  1007.1hPa Calm     95% 0in /  0.0mm 84 W/m2
07:40 52.2 °F /  11.2 °C 51.1 °F /  10.6 °C 29.7in /  1007.1hPa Calm     96% 0in /  0.0mm 79 W/m2
07:45 52.2 °F /  11.2 °C 50.7 °F /  10.4 °C 29.7in /  1007.1hPa Calm     95% 0in /  0.0mm 60 W/m2
07:50 52.3 °F /  11.3 °C 50.9 °F /  10.5 °C 29.7in /  1007.1hPa Calm   2mph /  3.2km/h 95% 0in /  0.0mm 60 W/m2
07:55 52.5 °F /  11.4 °C 51.1 °F /  10.6 °C 29.7in /  1007.1hPa NE 0.9mph /  1.4km/h 2mph /  3.2km/h 95% 0in /  0.0mm 72 W/m2
08:00 52.5 °F /  11.4 °C 51.1 °F /  10.6 °C 29.7in /  1007.1hPa Calm     95% 0in /  0.0mm 86 W/m2
08:05 52.5 °F /  11.4 °C 50.9 °F /  10.5 °C 29.7in /  1007.1hPa Calm     94% 0in /  0.0mm 77 W/m2
08:10 52.9 °F /  11.6 °C 51.3 °F /  10.7 °C 29.7in /  1007.1hPa Calm     94% 0in /  0.0mm 76 W/m2
08:15 52.9 °F /  11.6 °C 51.3 °F /  10.7 °C 29.7in /  1007.1hPa Calm     94% 0in /  0.0mm 86 W/m2
08:20 53.1 °F /  11.7 °C 51.4 °F /  10.8 °C 29.8in /  1007.5hPa Calm     94% 0in /  0.0mm 91 W/m2
08:25 53.2 °F /  11.8 °C 51.3 °F /  10.7 °C 29.8in /  1007.5hPa NE 0.9mph /  1.4km/h 1mph /  1.6km/h 93% 0in /  0.0mm 95 W/m2
08:30 53.2 °F /  11.8 °C 51.3 °F /  10.7 °C 29.8in /  1007.5hPa Calm   1mph /  1.6km/h 93% 0in /  0.0mm 100 W/m2
08:35 53.4 °F /  11.9 °C 51.1 °F /  10.6 °C 29.8in /  1007.5hPa Calm   2mph /  3.2km/h 92% 0in /  0.0mm 125 W/m2
08:40 54 °F /  12.2 °C 51.6 °F /  10.9 °C 29.8in /  1007.5hPa NE 0.9mph /  1.4km/h 3mph /  4.8km/h 92% 0in /  0.0mm 132 W/m2
08:45 54.1 °F /  12.3 °C 51.8 °F /  11 °C 29.8in /  1007.5hPa Calm   2mph /  3.2km/h 92% 0in /  0.0mm 137 W/m2
08:50 54.1 °F /  12.3 °C 51.6 °F /  10.9 °C 29.8in /  1007.5hPa ENE 0.9mph /  1.4km/h 2mph /  3.2km/h 91% 0in /  0.0mm 116 W/m2
08:55 54.3 °F /  12.4 °C 51.8 °F /  11 °C 29.8in /  1007.5hPa Calm   2mph /  3.2km/h 91% 0in /  0.0mm 105 W/m2
09:00 54.3 °F /  12.4 °C 51.8 °F /  11 °C 29.7in /  1007.1hPa East 2.9mph /  4.7km/h 3mph /  4.8km/h 91% 0in /  0.0mm 174 W/m2
09:05 54.5 °F /  12.5 °C 52 °F /  11.1 °C 29.8in /  1007.5hPa Calm   1mph /  1.6km/h 91% 0in /  0.0mm 116 W/m2
09:10 54.5 °F /  12.5 °C 51.6 °F /  10.9 °C 29.7in /  1007.1hPa Calm   3mph /  4.8km/h 90% 0in /  0.0mm 98 W/m2
09:15 54.5 °F /  12.5 °C 51.6 °F /  10.9 °C 29.7in /  1007.1hPa NNW 2mph /  3.2km/h 2mph /  3.2km/h 90% 0in /  0.0mm 116 W/m2
09:20 54.7 °F /  12.6 °C 51.8 °F /  11 °C 29.7in /  1007.1hPa Calm   1mph /  1.6km/h 90% 0in /  0.0mm 158 W/m2
09:25 54.9 °F /  12.7 °C 51.6 °F /  10.9 °C 29.7in /  1007.1hPa WNW 0.9mph /  1.4km/h 3mph /  4.8km/h 89% 0in /  0.0mm 172 W/m2
09:30 54.9 °F /  12.7 °C 51.6 °F /  10.9 °C 29.7in /  1007.1hPa North 2mph /  3.2km/h 3mph /  4.8km/h 89% 0in /  0.0mm 244 W/m2
09:35 55.2 °F /  12.9 °C 52 °F /  11.1 °C 29.7in /  1007.1hPa NNW 0.9mph /  1.4km/h 2mph /  3.2km/h 89% 0in /  0.0mm 229 W/m2
09:40 55.6 °F /  13.1 °C 52.2 °F /  11.2 °C 29.7in /  1007.1hPa West 0.9mph /  1.4km/h 4mph /  6.4km/h 88% 0in /  0.0mm 262 W/m2
09:45 55.8 °F /  13.2 °C 52 °F /  11.1 °C 29.7in /  1007.1hPa Calm   3mph /  4.8km/h 87% 0in /  0.0mm 239 W/m2
09:50 56.1 °F /  13.4 °C 52.3 °F /  11.3 °C 29.7in /  1007.1hPa West 2mph /  3.2km/h 3mph /  4.8km/h 87% 0in /  0.0mm 220 W/m2
09:55 56.1 °F /  13.4 °C 52 °F /  11.1 °C 29.7in /  1007.1hPa WNW 2.9mph /  4.7km/h 4mph /  6.4km/h 86% 0in /  0.0mm 185 W/m2
10:00 56.5 °F /  13.6 °C 52.3 °F /  11.3 °C 29.7in /  1006.8hPa WNW 2mph /  3.2km/h 3mph /  4.8km/h 86% 0in /  0.0mm 244 W/m2
10:05 56.7 °F /  13.7 °C 52.2 °F /  11.2 °C 29.7in /  1006.8hPa WNW 2.9mph /  4.7km/h 6mph /  9.7km/h 85% 0in /  0.0mm 267 W/m2
10:10 56.7 °F /  13.7 °C 51.8 °F /  11 °C 29.7in /  1006.8hPa WNW 0.9mph /  1.4km/h 4mph /  6.4km/h 84% 0in /  0.0mm 241 W/m2
10:15 56.8 °F /  13.8 °C 52 °F /  11.1 °C 29.7in /  1006.4hPa NNW 2mph /  3.2km/h 7mph /  11.3km/h 84% 0in /  0.0mm 271 W/m2
10:20 57 °F /  13.9 °C 52 °F /  11.1 °C 29.7in /  1006.4hPa West 4mph /  6.4km/h 4mph /  6.4km/h 83% 0in /  0.0mm 269 W/m2
10:25 57.2 °F /  14 °C 52.2 °F /  11.2 °C 29.7in /  1006.8hPa West 2mph /  3.2km/h 4mph /  6.4km/h 83% 0in /  0.0mm 462 W/m2
10:30 57.6 °F /  14.2 °C 52.2 °F /  11.2 °C 29.7in /  1006.8hPa West 4mph /  6.4km/h 8mph /  12.9km/h 82% 0in /  0.0mm 490 W/m2
10:35 57.7 °F /  14.3 °C 52.3 °F /  11.3 °C 29.7in /  1006.8hPa NW 0.9mph /  1.4km/h 7mph /  11.3km/h 82% 0in /  0.0mm 315 W/m2
10:40 57.9 °F /  14.4 °C 52.5 °F /  11.4 °C 29.7in /  1006.8hPa West 2.9mph /  4.7km/h 4mph /  6.4km/h 82% 0in /  0.0mm 443 W/m2
10:45 58.3 °F /  14.6 °C 52.2 °F /  11.2 °C 29.7in /  1006.8hPa NW 2mph /  3.2km/h 3mph /  4.8km/h 80% 0in /  0.0mm 367 W/m2
10:50 58.5 °F /  14.7 °C 52.3 °F /  11.3 °C 29.7in /  1007.1hPa NW 0.9mph /  1.4km/h 2mph /  3.2km/h 80% 0in /  0.0mm 332 W/m2
10:55 58.6 °F /  14.8 °C 52.5 °F /  11.4 °C 29.7in /  1007.1hPa NW 0.9mph /  1.4km/h 3mph /  4.8km/h 80% 0in /  0.0mm 225 W/m2
11:00 58.6 °F /  14.8 °C 52.5 °F /  11.4 °C 29.7in /  1006.8hPa West 2mph /  3.2km/h 2mph /  3.2km/h 80% 0in /  0.0mm 225 W/m2
11:05 58.6 °F /  14.8 °C 52.5 °F /  11.4 °C 29.7in /  1007.1hPa West 0.9mph /  1.4km/h 4mph /  6.4km/h 80% 0in /  0.0mm 241 W/m2
11:10 58.8 °F /  14.9 °C 52.7 °F /  11.5 °C 29.7in /  1006.8hPa WNW 0.9mph /  1.4km/h 4mph /  6.4km/h 80% 0in /  0.0mm 250 W/m2
11:15 58.8 °F /  14.9 °C 53.1 °F /  11.7 °C 29.7in /  1006.8hPa NW 0.9mph /  1.4km/h 2mph /  3.2km/h 81% 0in /  0.0mm 251 W/m2
11:20 59 °F /  15 °C 53.6 °F /  12 °C 29.7in /  1006.8hPa West 2.9mph /  4.7km/h 4mph /  6.4km/h 82% 0in /  0.0mm 271 W/m2
11:25 58.8 °F /  14.9 °C 52.7 °F /  11.5 °C 29.7in /  1006.8hPa SW 4mph /  6.4km/h 5mph /  8km/h 80% 0in /  0.0mm 218 W/m2
11:30 58.6 °F /  14.8 °C 52.9 °F /  11.6 °C 29.7in /  1006.8hPa West 0.9mph /  1.4km/h 4mph /  6.4km/h 81% 0in /  0.0mm 171 W/m2
11:35 58.5 °F /  14.7 °C 53.1 °F /  11.7 °C 29.7in /  1006.8hPa WSW 0.9mph /  1.4km/h 4mph /  6.4km/h 82% 0in /  0.0mm 128 W/m2
11:40 58.1 °F /  14.5 °C 52.9 °F /  11.6 °C 29.7in /  1006.8hPa West 4mph /  6.4km/h 4mph /  6.4km/h 83% 0in /  0.0mm 83 W/m2
11:45 57.7 °F /  14.3 °C 52.9 °F /  11.6 °C 29.7in /  1007.1hPa NW 4.9mph /  7.9km/h 7mph /  11.3km/h 84% 0in /  0.0mm 69 W/m2
11:50 57.4 °F /  14.1 °C 52.9 °F /  11.6 °C 29.7in /  1007.1hPa West 2mph /  3.2km/h 6mph /  9.7km/h 85% 0in /  0.0mm 69 W/m2
11:55 57 °F /  13.9 °C 52.9 °F /  11.6 °C 29.7in /  1007.1hPa NW 2.9mph /  4.7km/h 6mph /  9.7km/h 86% 0in /  0.0mm 69 W/m2
12:01 56.8 °F /  13.8 °C 52.7 °F /  11.5 °C 29.7in /  1007.1hPa WSW 2mph /  3.2km/h 3mph /  4.8km/h 86% 0in /  0.0mm 63 W/m2
12:06 56.8 °F /  13.8 °C 53.1 °F /  11.7 °C 29.7in /  1007.1hPa WNW 2mph /  3.2km/h 3mph /  4.8km/h 87% 0in /  0.0mm 63 W/m2
12:11 56.8 °F /  13.8 °C 53.1 °F /  11.7 °C 29.8in /  1007.5hPa West 0.9mph /  1.4km/h 5mph /  8km/h 87% 0in /  0.0mm 69 W/m2
12:16 56.8 °F /  13.8 °C 53.1 °F /  11.7 °C 29.8in /  1007.5hPa WNW 2mph /  3.2km/h 3mph /  4.8km/h 87% 0in /  0.0mm 69 W/m2
12:21 56.8 °F /  13.8 °C 53.1 °F /  11.7 °C 29.8in /  1007.5hPa West 0.9mph /  1.4km/h 2mph /  3.2km/h 87% 0in /  0.0mm 69 W/m2
12:26 56.8 °F /  13.8 °C 53.1 °F /  11.7 °C 29.8in /  1007.5hPa Calm     87% 0in /  0.0mm 58 W/m2
12:31 56.8 °F /  13.8 °C 53.1 °F /  11.7 °C 29.8in /  1007.5hPa WNW 0.9mph /  1.4km/h 4mph /  6.4km/h 87% 0in /  0.0mm 62 W/m2
12:36 56.8 °F /  13.8 °C 53.2 °F /  11.8 °C 29.8in /  1007.5hPa West 2mph /  3.2km/h 4mph /  6.4km/h 88% 0in /  0.0mm 79 W/m2
12:41 56.8 °F /  13.8 °C 53.2 °F /  11.8 °C 29.8in /  1007.5hPa West 0.9mph /  1.4km/h 2mph /  3.2km/h 88% 0in /  0.0mm 91 W/m2
Juneau County Weather
Compliments of Weather Underground - 2 mb